Time,TemperatureF,DewpointF,PressureIn,WindDirection,WindDirectionDegrees,WindSpeedMPH,WindSpeedGustMPH,Humidity,HourlyPrecipIn,Conditions,Clouds,dailyrainin,SolarRadiationWatts/m^2,SoftwareType,DateUTC
2013-05-15 00:22:00,50.0,47.0,-100.00,ESE,112,17.0,27.0,90,0.00,,,0.00,0.000000,,2013-05-15 10:22:00,
2013-05-15 00:32:00,50.0,47.0,-100.00,ESE,112,17.0,27.0,90,0.00,,,0.00,0.000000,,2013-05-15 10:32:00,
2013-05-15 00:42:00,50.0,47.0,-100.00,ESE,112,17.0,27.0,90,0.00,,,0.00,0.000000,,2013-05-15 10:42:00,
2013-05-15 00:52:00,50.0,47.0,-100.00,ESE,112,17.0,27.0,90,0.00,,,0.00,0.000000,,2013-05-15 10:52:00,
2013-05-15 01:26:00,51.0,48.0,-100.00,ESE,105,16.0,25.0,91,0.00,,,0.00,0.000000,,2013-05-15 11:26:00,
2013-05-15 01:35:00,51.0,48.0,-100.00,ESE,105,16.0,25.0,91,0.00,,,0.00,0.000000,,2013-05-15 11:35:00,
2013-05-15 01:53:00,51.0,48.0,-100.00,ESE,105,16.0,25.0,91,0.00,,,0.00,0.000000,,2013-05-15 11:53:00,
2013-05-15 02:26:00,48.0,46.0,-100.00,ESE,114,15.0,24.0,93,0.00,,,0.00,0.000000,,2013-05-15 12:26:00,
2013-05-15 02:35:00,48.0,46.0,-100.00,ESE,114,15.0,24.0,93,0.00,,,0.00,0.000000,,2013-05-15 12:35:00,
2013-05-15 02:45:00,48.0,46.0,-100.00,ESE,114,15.0,24.0,93,0.00,,,0.00,0.000000,,2013-05-15 12:45:00,
2013-05-15 02:53:00,48.0,46.0,-100.00,ESE,114,15.0,24.0,93,0.00,,,0.00,0.000000,,2013-05-15 12:53:00,
2013-05-15 03:24:00,48.0,45.0,-100.00,ESE,108,14.0,22.0,89,0.00,,,0.00,0.000000,,2013-05-15 13:24:00,
2013-05-15 03:35:00,48.0,45.0,-100.00,ESE,108,14.0,22.0,89,0.00,,,0.00,0.000000,,2013-05-15 13:35:00,
2013-05-15 03:45:00,48.0,45.0,-100.00,ESE,108,14.0,22.0,89,0.00,,,0.00,0.000000,,2013-05-15 13:45:00,
2013-05-15 03:53:00,48.0,45.0,-100.00,ESE,108,14.0,22.0,89,0.00,,,0.00,0.000000,,2013-05-15 13:53:00,
2013-05-15 04:25:00,48.0,43.0,-100.00,ESE,111,15.0,22.0,83,0.00,,,0.00,0.000000,,2013-05-15 14:25:00,
2013-05-15 04:36:00,48.0,43.0,-100.00,ESE,111,15.0,22.0,83,0.00,,,0.00,0.000000,,2013-05-15 14:36:00,
2013-05-15 04:44:00,48.0,43.0,-100.00,ESE,111,15.0,22.0,83,0.00,,,0.00,0.000000,,2013-05-15 14:44:00,
2013-05-15 04:52:00,48.0,43.0,-100.00,ESE,111,15.0,22.0,83,0.00,,,0.00,0.000000,,2013-05-15 14:52:00,
2013-05-15 05:26:00,49.0,46.0,-100.00,ESE,105,16.0,25.0,89,0.00,,,-99.99,0.000000,,2013-05-15 15:26:00,
2013-05-15 05:35:00,49.0,46.0,-100.00,ESE,105,16.0,25.0,89,0.00,,,-99.99,0.000000,,2013-05-15 15:35:00,
2013-05-15 05:45:00,49.0,46.0,-100.00,ESE,105,16.0,25.0,89,0.00,,,-99.99,0.000000,,2013-05-15 15:45:00,
2013-05-15 05:54:00,49.0,46.0,-100.00,ESE,105,16.0,25.0,89,0.00,,,-99.99,0.000000,,2013-05-15 15:54:00,
2013-05-15 06:27:00,50.0,46.0,-100.00,ESE,117,18.0,27.0,86,0.00,,,0.00,2.000000,,2013-05-15 16:27:00,
2013-05-15 06:34:00,50.0,46.0,-100.00,ESE,117,18.0,27.0,86,0.00,,,0.00,2.000000,,2013-05-15 16:34:00,
2013-05-15 06:45:00,50.0,46.0,-100.00,ESE,117,18.0,27.0,86,0.00,,,0.00,2.000000,,2013-05-15 16:45:00,
2013-05-15 06:52:00,50.0,46.0,-100.00,ESE,117,18.0,27.0,86,0.00,,,0.00,2.000000,,2013-05-15 16:52:00,
2013-05-15 07:26:00,52.0,49.0,-100.00,ESE,122,15.0,26.0,89,0.00,,,0.00,118.000000,,2013-05-15 17:26:00,
2013-05-15 07:45:00,52.0,49.0,-100.00,ESE,122,15.0,26.0,89,0.00,,,0.00,118.000000,,2013-05-15 17:45:00,
2013-05-15 07:53:00,52.0,49.0,-100.00,ESE,122,15.0,26.0,89,0.00,,,0.00,118.000000,,2013-05-15 17:53:00,
2013-05-15 08:25:00,55.0,50.0,-100.00,ESE,112,20.0,29.0,82,0.00,,,0.00,440.000000,,2013-05-15 18:25:00,
2013-05-15 08:35:00,55.0,50.0,-100.00,ESE,112,20.0,29.0,82,0.00,,,0.00,440.000000,,2013-05-15 18:35:00,
2013-05-15 08:46:00,55.0,50.0,-100.00,ESE,112,20.0,29.0,82,0.00,,,0.00,440.000000,,2013-05-15 18:46:00,
2013-05-15 08:54:00,55.0,50.0,-100.00,ESE,112,20.0,29.0,82,0.00,,,0.00,440.000000,,2013-05-15 18:54:00,
2013-05-15 09:27:00,57.0,43.0,-100.00,East,101,22.0,32.0,60,0.00,,,-99.99,766.000000,,2013-05-15 19:27:00,
2013-05-15 09:35:00,57.0,43.0,-100.00,East,101,22.0,32.0,60,0.00,,,-99.99,766.000000,,2013-05-15 19:35:00,
2013-05-15 09:43:00,57.0,43.0,-100.00,East,101,22.0,32.0,60,0.00,,,-99.99,766.000000,,2013-05-15 19:43:00,
2013-05-15 09:53:00,57.0,43.0,-100.00,East,101,22.0,32.0,60,0.00,,,-99.99,766.000000,,2013-05-15 19:53:00,
2013-05-15 10:25:00,60.0,46.0,-100.00,East,95,22.0,32.0,59,0.00,,,0.00,1019.000000,,2013-05-15 20:25:00,
2013-05-15 10:44:00,60.0,46.0,-100.00,East,95,22.0,32.0,59,0.00,,,0.00,1019.000000,,2013-05-15 20:44:00,
2013-05-15 10:52:00,60.0,46.0,-100.00,East,95,22.0,32.0,59,0.00,,,0.00,1019.000000,,2013-05-15 20:52:00,
2013-05-15 11:26:00,64.0,44.0,-100.00,East,97,22.0,34.0,49,0.00,,,0.00,1208.000000,,2013-05-15 21:26:00,
2013-05-15 11:38:00,64.0,44.0,-100.00,East,97,22.0,34.0,49,0.00,,,0.00,1208.000000,,2013-05-15 21:38:00,
2013-05-15 11:46:00,64.0,44.0,-100.00,East,97,22.0,34.0,49,0.00,,,0.00,1208.000000,,2013-05-15 21:46:00,
2013-05-15 11:54:00,64.0,44.0,-100.00,East,97,22.0,34.0,49,0.00,,,0.00,1208.000000,,2013-05-15 21:54:00,
2013-05-15 12:27:00,66.0,46.0,-100.00,East,98,20.0,36.0,48,0.00,,,0.00,1307.000000,,2013-05-15 22:27:00,
2013-05-15 12:36:00,66.0,46.0,-100.00,East,98,20.0,36.0,48,0.00,,,0.00,1307.000000,,2013-05-15 22:36:00,
2013-05-15 12:46:00,66.0,46.0,-100.00,East,98,20.0,36.0,48,0.00,,,0.00,1307.000000,,2013-05-15 22:46:00,
2013-05-15 12:53:00,66.0,46.0,-100.00,East,98,20.0,36.0,48,0.00,,,0.00,1307.000000,,2013-05-15 22:53:00,
2013-05-15 13:36:00,66.0,47.0,-100.00,East,88,20.0,36.0,51,0.00,,,0.00,1322.000000,,2013-05-15 23:36:00,
2013-05-15 13:52:00,66.0,47.0,-100.00,East,88,20.0,36.0,51,0.00,,,0.00,1322.000000,,2013-05-15 23:52:00,
2013-05-15 14:25:00,63.0,47.0,-100.00,East,85,16.0,30.0,56,0.00,,,0.00,1280.000000,,2013-05-16 00:25:00,
2013-05-15 14:35:00,63.0,47.0,-100.00,East,85,16.0,30.0,56,0.00,,,0.00,1280.000000,,2013-05-16 00:35:00,
2013-05-15 14:45:00,63.0,47.0,-100.00,East,85,16.0,30.0,56,0.00,,,0.00,1280.000000,,2013-05-16 00:45:00,
2013-05-15 14:52:00,63.0,47.0,-100.00,East,85,16.0,30.0,56,0.00,,,0.00,1280.000000,,2013-05-16 00:52:00,
2013-05-15 15:26:00,65.0,48.0,-100.00,East,87,17.0,28.0,54,0.00,,,0.00,1146.000000,,2013-05-16 01:26:00,
2013-05-15 15:35:00,65.0,48.0,-100.00,East,87,17.0,28.0,54,0.00,,,0.00,1146.000000,,2013-05-16 01:35:00,
2013-05-15 15:46:00,65.0,48.0,-100.00,East,87,17.0,28.0,54,0.00,,,0.00,1146.000000,,2013-05-16 01:46:00,
2013-05-15 15:53:00,65.0,48.0,-100.00,East,87,17.0,28.0,54,0.00,,,0.00,1146.000000,,2013-05-16 01:53:00,
2013-05-15 16:26:00,62.0,46.0,-100.00,East,99,17.0,29.0,56,0.00,,,0.00,928.000000,,2013-05-16 02:26:00,
2013-05-15 16:36:00,62.0,46.0,-100.00,East,99,17.0,29.0,56,0.00,,,0.00,928.000000,,2013-05-16 02:36:00,
2013-05-15 16:43:00,62.0,46.0,-100.00,East,99,17.0,29.0,56,0.00,,,0.00,928.000000,,2013-05-16 02:43:00,
2013-05-15 16:51:00,62.0,46.0,-100.00,East,99,17.0,29.0,56,0.00,,,0.00,928.000000,,2013-05-16 02:51:00,
2013-05-15 17:24:00,62.0,47.0,-100.00,East,95,22.0,33.0,57,0.00,,,0.00,429.000000,,2013-05-16 03:24:00,
2013-05-15 17:34:00,62.0,47.0,-100.00,East,95,22.0,33.0,57,0.00,,,0.00,429.000000,,2013-05-16 03:34:00,
2013-05-15 17:44:00,62.0,47.0,-100.00,East,95,22.0,33.0,57,0.00,,,0.00,429.000000,,2013-05-16 03:44:00,
2013-05-15 17:54:00,62.0,47.0,-100.00,East,95,22.0,33.0,57,0.00,,,0.00,429.000000,,2013-05-16 03:54:00,
2013-05-15 18:23:00,58.0,45.0,-100.00,East,96,21.0,37.0,63,0.00,,,0.00,31.000000,,2013-05-16 04:23:00,
2013-05-15 18:33:00,58.0,45.0,-100.00,East,96,21.0,37.0,63,0.00,,,0.00,31.000000,,2013-05-16 04:33:00,
2013-05-15 18:42:00,58.0,45.0,-100.00,East,96,21.0,37.0,63,0.00,,,0.00,31.000000,,2013-05-16 04:42:00,
2013-05-15 18:52:00,58.0,45.0,-100.00,East,96,21.0,37.0,63,0.00,,,0.00,31.000000,,2013-05-16 04:52:00,
2013-05-15 19:22:00,56.0,48.0,-100.00,ESE,102,19.0,33.0,74,0.00,,,0.00,16.000000,,2013-05-16 05:22:00,
2013-05-15 19:32:00,56.0,48.0,-100.00,ESE,102,19.0,33.0,74,0.00,,,0.00,16.000000,,2013-05-16 05:32:00,
2013-05-15 19:42:00,56.0,48.0,-100.00,ESE,102,19.0,33.0,74,0.00,,,0.00,16.000000,,2013-05-16 05:42:00,
2013-05-15 19:52:00,56.0,48.0,-100.00,ESE,102,19.0,33.0,74,0.00,,,0.00,16.000000,,2013-05-16 05:52:00,
2013-05-15 20:22:00,55.0,50.0,-100.00,ESE,114,17.0,26.0,84,0.00,,,0.00,0.000000,,2013-05-16 06:22:00,
2013-05-15 20:33:00,55.0,50.0,-100.00,ESE,114,17.0,26.0,84,0.00,,,0.00,0.000000,,2013-05-16 06:33:00,
2013-05-15 20:43:00,55.0,50.0,-100.00,ESE,114,17.0,26.0,84,0.00,,,0.00,0.000000,,2013-05-16 06:43:00,
2013-05-15 20:52:00,55.0,50.0,-100.00,ESE,114,17.0,26.0,84,0.00,,,0.00,0.000000,,2013-05-16 06:52:00,
2013-05-15 21:24:00,53.0,51.0,-100.00,ESE,112,18.0,28.0,92,0.00,,,0.00,0.000000,,2013-05-16 07:24:00,
2013-05-15 21:34:00,53.0,51.0,-100.00,ESE,112,18.0,28.0,92,0.00,,,0.00,0.000000,,2013-05-16 07:34:00,
2013-05-15 21:44:00,53.0,51.0,-100.00,ESE,112,18.0,28.0,92,0.00,,,0.00,0.000000,,2013-05-16 07:44:00,
2013-05-15 21:54:00,53.0,51.0,-100.00,ESE,112,18.0,28.0,92,0.00,,,0.00,0.000000,,2013-05-16 07:54:00,
2013-05-15 22:23:00,53.0,51.0,-100.00,ESE,109,17.0,28.0,93,0.00,,,0.00,0.000000,,2013-05-16 08:23:00,
2013-05-15 22:34:00,53.0,51.0,-100.00,ESE,109,17.0,28.0,93,0.00,,,0.00,0.000000,,2013-05-16 08:34:00,
2013-05-15 22:44:00,53.0,51.0,-100.00,ESE,109,17.0,28.0,93,0.00,,,0.00,0.000000,,2013-05-16 08:44:00,
2013-05-15 22:54:00,53.0,51.0,-100.00,ESE,109,17.0,28.0,93,0.00,,,0.00,0.000000,,2013-05-16 08:54:00,
2013-05-15 23:24:00,51.0,47.0,-100.00,ESE,108,13.0,24.0,87,0.00,,,0.00,0.000000,,2013-05-16 09:24:00,
2013-05-15 23:35:00,51.0,47.0,-100.00,ESE,108,13.0,24.0,87,0.00,,,0.00,0.000000,,2013-05-16 09:35:00,
2013-05-15 23:45:00,51.0,47.0,-100.00,ESE,108,13.0,24.0,87,0.00,,,0.00,0.000000,,2013-05-16 09:45:00,
2013-05-15 23:55:00,51.0,47.0,-100.00,ESE,108,13.0,24.0,87,0.00,,,0.00,0.000000,,2013-05-16 09:55:00,